createdAt,value
2024-03-08T00:02:33.885Z,-2.61
2024-03-08T00:07:34.601Z,-2.67
2024-03-08T00:12:33.897Z,-2.73
2024-03-08T00:17:33.783Z,-2.79
2024-03-08T00:22:33.659Z,-2.82
2024-03-08T00:27:33.637Z,-2.87
2024-03-08T00:32:33.638Z,-2.93
2024-03-08T00:37:33.482Z,-2.98
2024-03-08T00:42:33.326Z,-3.04
2024-03-08T00:47:36.442Z,-3.11
2024-03-08T00:52:33.277Z,-3.17
2024-03-08T00:57:33.207Z,-3.22
2024-03-08T01:02:33.130Z,-3.25
2024-03-08T01:07:33.082Z,-3.29
2024-03-08T01:12:32.993Z,-3.34
2024-03-08T01:17:33.131Z,-3.40
2024-03-08T01:22:32.859Z,-3.46
2024-03-08T01:27:32.874Z,-3.53
2024-03-08T01:32:32.815Z,-3.60
2024-03-08T01:37:32.761Z,-3.65
2024-03-08T01:42:32.579Z,-3.71
2024-03-08T01:47:35.671Z,-3.72
2024-03-08T01:52:32.533Z,-3.71
2024-03-08T01:57:32.458Z,-3.76
2024-03-08T02:02:32.417Z,-3.82
2024-03-08T02:07:32.325Z,-3.87
2024-03-08T02:12:32.229Z,-3.89
2024-03-08T02:17:32.258Z,-3.93
2024-03-08T02:22:32.097Z,-4.00
2024-03-08T02:27:32.097Z,-4.07
2024-03-08T02:32:32.066Z,-4.13
2024-03-08T02:37:31.929Z,-4.17
2024-03-08T02:42:31.835Z,-4.22
2024-03-08T02:47:34.940Z,-4.27
2024-03-08T02:52:31.760Z,-4.30
2024-03-08T02:57:31.709Z,-4.34
2024-03-08T03:02:31.657Z,-4.37
2024-03-08T03:07:31.595Z,-4.38
2024-03-08T03:12:31.479Z,-4.40
2024-03-08T03:17:31.492Z,-4.42
2024-03-08T03:22:31.329Z,-4.47
2024-03-08T03:27:31.287Z,-4.53
2024-03-08T03:32:31.286Z,-4.58
2024-03-08T03:37:31.372Z,-4.62
2024-03-08T03:42:31.107Z,-4.64
2024-03-08T03:47:34.217Z,-4.66
2024-03-08T03:52:30.962Z,-4.70
2024-03-08T03:57:30.945Z,-4.74
2024-03-08T04:02:30.856Z,-4.76
2024-03-08T04:07:30.929Z,-4.78
2024-03-08T04:12:30.943Z,-4.79
2024-03-08T04:17:30.844Z,-4.82
2024-03-08T04:22:30.661Z,-4.87
2024-03-08T04:27:30.716Z,-4.88
2024-03-08T04:32:30.659Z,-4.90
2024-03-08T04:37:30.779Z,-4.93
2024-03-08T04:42:30.393Z,-4.96
2024-03-08T04:47:33.469Z,-5.00
2024-03-08T04:52:30.264Z,-5.04
2024-03-08T04:57:30.154Z,-5.07
2024-03-08T05:02:30.111Z,-5.10
2024-03-08T05:07:30.044Z,-5.11
2024-03-08T05:12:29.923Z,-5.13
2024-03-08T05:17:30.815Z,-5.16
2024-03-08T05:22:29.872Z,-5.20
2024-03-08T05:27:29.856Z,-5.22
2024-03-08T05:32:31.871Z,-5.21
2024-03-08T05:37:29.686Z,-5.21
2024-03-08T05:42:29.636Z,-5.20
2024-03-08T05:47:32.725Z,-5.20
2024-03-08T05:52:29.497Z,-5.20
2024-03-08T05:57:29.448Z,-5.16
2024-03-08T06:02:29.383Z,-5.11
2024-03-08T06:07:29.369Z,-5.02
2024-03-08T06:12:29.229Z,-4.85
2024-03-08T06:17:29.254Z,-4.62
2024-03-08T06:22:29.077Z,-4.36
2024-03-08T06:27:29.123Z,-4.02
2024-03-08T06:32:29.002Z,-3.58
2024-03-08T06:37:29.103Z,-3.04
2024-03-08T06:42:28.883Z,-2.48
2024-03-08T06:47:31.880Z,-1.98
2024-03-08T06:52:28.667Z,-1.54
2024-03-08T06:57:28.756Z,-1.12
2024-03-08T07:02:28.638Z,-0.68
2024-03-08T07:07:28.542Z,-0.27
2024-03-08T07:12:28.661Z,0.04
2024-03-08T07:17:28.668Z,0.24
2024-03-08T07:22:28.324Z,0.38
2024-03-08T07:27:28.305Z,0.44
2024-03-08T07:32:28.290Z,0.44
2024-03-08T07:37:28.246Z,0.41
2024-03-08T07:42:28.073Z,0.30
2024-03-08T07:47:31.206Z,0.20
2024-03-08T07:52:28.117Z,0.06
2024-03-08T07:57:27.894Z,-0.03
2024-03-08T08:02:27.804Z,0.06
2024-03-08T08:07:27.828Z,0.14
2024-03-08T08:12:27.661Z,0.14
2024-03-08T08:17:27.757Z,0.18
2024-03-08T08:22:27.573Z,0.28
2024-03-08T08:27:27.529Z,0.43
2024-03-08T08:32:27.372Z,0.66
2024-03-08T08:37:27.391Z,0.89
2024-03-08T08:42:27.259Z,1.09
2024-03-08T08:47:30.291Z,1.30
2024-03-08T08:52:27.124Z,1.55
2024-03-08T08:57:27.195Z,1.81
2024-03-08T09:02:27.089Z,2.06
2024-03-08T09:07:27.059Z,2.29
2024-03-08T09:12:26.897Z,2.48
2024-03-08T09:17:26.933Z,2.66
2024-03-08T09:22:26.717Z,2.86
2024-03-08T09:27:26.738Z,3.11
2024-03-08T09:32:26.645Z,3.37
2024-03-08T09:37:26.586Z,3.56
2024-03-08T09:42:26.489Z,3.73
2024-03-08T09:47:29.545Z,3.93
2024-03-08T09:52:26.399Z,4.12
2024-03-08T09:57:26.406Z,4.31
2024-03-08T10:02:26.358Z,4.50
2024-03-08T10:07:26.322Z,4.71
2024-03-08T10:12:26.159Z,4.90
2024-03-08T10:17:26.082Z,5.05
2024-03-08T10:22:26.042Z,5.15
2024-03-08T10:27:26.063Z,5.20
2024-03-08T10:32:25.807Z,5.28
2024-03-08T10:37:25.950Z,5.42
2024-03-08T10:42:25.719Z,5.46
2024-03-08T10:47:28.670Z,5.46
2024-03-08T10:52:25.645Z,5.50
2024-03-08T10:57:25.567Z,5.56
2024-03-08T11:02:26.177Z,5.66
2024-03-08T11:07:25.516Z,5.81
2024-03-08T11:12:25.318Z,5.97
2024-03-08T11:17:25.364Z,6.12
2024-03-08T11:22:25.269Z,6.21
2024-03-08T11:27:25.175Z,6.27
2024-03-08T11:32:25.185Z,6.36
2024-03-08T11:37:25.212Z,6.44
2024-03-08T11:42:25.046Z,6.53
2024-03-08T11:47:27.927Z,6.66
2024-03-08T11:52:24.899Z,6.73
2024-03-08T11:57:24.987Z,6.79
2024-03-08T12:02:24.725Z,6.87
2024-03-08T12:07:24.686Z,6.95
2024-03-08T12:12:24.600Z,6.95
2024-03-08T12:17:24.548Z,6.96
2024-03-08T12:22:24.501Z,7.01
2024-03-08T12:27:24.347Z,7.10
2024-03-08T12:32:24.338Z,7.20
2024-03-08T12:37:24.285Z,7.30
2024-03-08T12:42:24.140Z,7.41
2024-03-08T12:47:27.142Z,7.53
2024-03-08T12:52:24.033Z,7.67
2024-03-08T12:57:24.004Z,7.82
2024-03-08T13:02:23.944Z,7.87
2024-03-08T13:07:23.892Z,7.90
2024-03-08T13:12:23.780Z,7.97
2024-03-08T13:17:23.800Z,8.03
2024-03-08T13:22:23.670Z,8.10
2024-03-08T13:27:23.584Z,8.24
2024-03-08T13:32:23.465Z,8.30
2024-03-08T13:37:23.499Z,8.30
2024-03-08T13:42:23.379Z,8.32
2024-03-08T13:47:26.306Z,8.39
2024-03-08T13:52:23.202Z,8.53
2024-03-08T13:57:23.232Z,8.68
2024-03-08T14:02:23.056Z,8.79
2024-03-08T14:07:23.053Z,8.89
2024-03-08T14:12:23.057Z,8.96
2024-03-08T14:17:22.905Z,9.10
2024-03-08T14:22:22.794Z,9.27
2024-03-08T14:27:22.759Z,9.40
2024-03-08T14:32:22.691Z,9.49
2024-03-08T14:37:22.736Z,9.43
2024-03-08T14:42:22.554Z,9.28
2024-03-08T14:47:25.537Z,9.16
2024-03-08T14:52:22.521Z,9.23
2024-03-08T14:57:22.341Z,9.48
2024-03-08T15:02:22.415Z,9.63
2024-03-08T15:07:22.347Z,9.64
2024-03-08T15:12:22.144Z,9.59
2024-03-08T15:17:22.247Z,9.53
2024-03-08T15:22:22.029Z,9.47
2024-03-08T15:27:22.113Z,9.42
2024-03-08T15:32:23.571Z,9.35
2024-03-08T15:37:21.930Z,9.29
2024-03-08T15:42:21.797Z,9.19
2024-03-08T15:47:24.733Z,9.04
2024-03-08T15:52:21.678Z,8.93
2024-03-08T15:57:21.611Z,8.84
2024-03-08T16:02:21.591Z,8.74
2024-03-08T16:07:21.516Z,8.67
2024-03-08T16:12:21.332Z,8.58
2024-03-08T16:17:21.312Z,8.49
2024-03-08T16:22:21.263Z,8.42
2024-03-08T16:27:21.163Z,8.34
2024-03-08T16:32:21.122Z,8.21
2024-03-08T16:37:23.121Z,8.04
2024-03-08T16:42:21.262Z,7.89
